Stoughstown, Pennsylvania
Current Conditions -  °F | °C
As of 1:53 AM on Thursday 18 Dec 2014 (Local Time) from KRYT Reporting Station
Overcast Overcast  
Wind Chill: 26°   Ceiling: 3700
Heat Index: 34°   Visibility: 10mi
Dew Point: 21°   Wind: 10mph
Humidity: 59%   Direction: 280°W
Pressure: 30.02"   Gusts: 16mph
Location:  40.0414°N, 77.4967°W
Report Text: KRYT 180653Z AUTO 28009G14KT 240V350 10SM OVC037 01/M06 A3002 RMK AO2 SLP175 T00111061 $
Loading
Personal Weather Stations






























Interactive Weather Map New forecast layout! Learn more

10-Day Weather Forecast

Advertisements
Track Severe Weather on mobile